createdAt,value
2019-01-31T00:03:40.863Z,86.53
2019-01-31T00:08:49.820Z,86.30
2019-01-31T00:13:42.520Z,86.47
2019-01-31T00:18:30.793Z,86.39
2019-01-31T00:23:37.296Z,86.33
2019-01-31T00:28:07.024Z,86.34
2019-01-31T00:33:16.133Z,86.28
2019-01-31T00:37:48.043Z,86.33
2019-01-31T00:42:45.124Z,86.26
2019-01-31T00:47:15.442Z,86.14
2019-01-31T00:51:59.223Z,86.00
2019-01-31T00:56:46.770Z,85.81
2019-01-31T01:01:36.549Z,85.95
2019-01-31T01:06:36.557Z,85.94
2019-01-31T01:11:59.920Z,85.80
2019-01-31T01:16:55.391Z,85.79
2019-01-31T01:21:31.036Z,85.87
2019-01-31T01:26:39.366Z,85.93
2019-01-31T01:31:51.877Z,85.83
2019-01-31T01:36:49.285Z,85.78
2019-01-31T01:41:42.343Z,85.60
2019-01-31T01:47:05.428Z,85.76
2019-01-31T01:52:01.850Z,85.59
2019-01-31T01:56:45.448Z,85.54
2019-01-31T02:01:34.767Z,85.53
2019-01-31T02:06:42.467Z,85.67
2019-01-31T02:11:21.360Z,85.56
2019-01-31T02:16:38.102Z,85.32
2019-01-31T02:21:29.597Z,85.46
2019-01-31T02:25:55.130Z,85.49
2019-01-31T02:30:43.910Z,85.51
2019-01-31T02:35:24.859Z,85.63
2019-01-31T02:40:07.315Z,85.46
2019-01-31T02:45:27.888Z,85.48
2019-01-31T02:50:11.413Z,85.72
2019-01-31T02:54:47.842Z,85.75
2019-01-31T02:59:54.634Z,85.65
2019-01-31T03:04:39.119Z,85.48
2019-01-31T03:09:54.625Z,85.53
2019-01-31T03:14:22.117Z,85.75
2019-01-31T03:18:52.257Z,85.75
2019-01-31T03:23:54.909Z,85.96
2019-01-31T03:28:40.724Z,86.03
2019-01-31T03:33:48.795Z,86.12
2019-01-31T03:38:37.136Z,86.04
2019-01-31T03:43:23.501Z,85.78
2019-01-31T03:48:18.754Z,85.77
2019-01-31T03:53:06.079Z,85.79
2019-01-31T03:57:57.665Z,85.95
2019-01-31T04:02:36.208Z,85.90
2019-01-31T04:06:41.175Z,86.06
2019-01-31T04:10:46.047Z,86.01
2019-01-31T04:14:50.939Z,86.24
2019-01-31T04:18:56.249Z,86.32
2019-01-31T04:23:01.164Z,86.42
2019-01-31T04:27:06.073Z,86.59
2019-01-31T04:31:10.979Z,86.54
2019-01-31T04:35:15.945Z,86.50
2019-01-31T04:39:21.169Z,86.59
2019-01-31T04:43:26.136Z,86.53
2019-01-31T04:47:31.031Z,86.49
2019-01-31T04:51:36.289Z,86.56
2019-01-31T04:55:41.287Z,86.68
2019-01-31T04:59:46.502Z,86.77
2019-01-31T05:03:51.405Z,86.87
2019-01-31T05:07:56.320Z,86.72
2019-01-31T05:12:01.210Z,86.77
2019-01-31T05:16:06.146Z,86.97
2019-01-31T05:20:15.239Z,86.83
2019-01-31T05:24:20.205Z,87.09
2019-01-31T05:28:25.481Z,86.99
2019-01-31T05:32:30.423Z,87.05
2019-01-31T05:36:35.504Z,87.03
2019-01-31T05:40:40.473Z,87.03
2019-01-31T05:44:46.375Z,87.11
2019-01-31T05:48:51.864Z,87.05
2019-01-31T05:52:56.842Z,87.04
2019-01-31T05:57:02.131Z,86.99
2019-01-31T06:01:07.114Z,86.98
2019-01-31T06:05:12.459Z,87.08
2019-01-31T06:09:17.471Z,87.06
2019-01-31T06:13:22.705Z,87.10
2019-01-31T06:17:28.072Z,87.14
2019-01-31T06:21:33.044Z,87.07
2019-01-31T06:25:38.376Z,87.03
2019-01-31T06:29:43.343Z,87.21
2019-01-31T06:33:48.329Z,87.07
2019-01-31T06:37:53.356Z,87.15
2019-01-31T06:41:58.275Z,87.16
2019-01-31T06:46:03.163Z,87.17
2019-01-31T06:50:08.971Z,87.39
2019-01-31T06:54:13.876Z,87.27
2019-01-31T06:58:18.877Z,87.18
2019-01-31T07:02:23.768Z,87.26
2019-01-31T07:06:28.686Z,87.19
2019-01-31T07:10:33.626Z,87.18
2019-01-31T07:14:38.511Z,87.13
2019-01-31T07:18:43.410Z,87.23
2019-01-31T07:22:48.303Z,87.36
2019-01-31T07:26:53.203Z,87.35
2019-01-31T07:30:58.114Z,87.44
2019-01-31T07:35:03.053Z,87.43
2019-01-31T07:39:09.624Z,87.50
2019-01-31T07:43:14.534Z,87.61
2019-01-31T07:47:19.427Z,87.54
2019-01-31T07:51:24.352Z,87.55
2019-01-31T07:55:29.250Z,87.58
2019-01-31T07:59:34.161Z,87.68
2019-01-31T08:03:40.742Z,87.70
2019-01-31T08:07:45.965Z,87.60
2019-01-31T08:11:52.641Z,87.66
2019-01-31T08:15:57.481Z,87.66
2019-01-31T08:20:02.384Z,87.47
2019-01-31T08:24:09.539Z,87.32
2019-01-31T08:28:13.960Z,87.10
2019-01-31T08:32:18.857Z,87.33
2019-01-31T08:36:23.772Z,87.19
2019-01-31T08:40:28.640Z,87.08
2019-01-31T08:44:33.559Z,86.98
2019-01-31T08:48:38.546Z,86.76
2019-01-31T08:52:43.451Z,86.56
2019-01-31T08:56:48.324Z,86.34
2019-01-31T09:00:53.252Z,85.80
2019-01-31T09:04:58.147Z,85.62
2019-01-31T09:09:04.276Z,85.83
2019-01-31T09:13:11.735Z,85.42
2019-01-31T09:17:16.721Z,85.59
2019-01-31T09:21:54.294Z,85.29
2019-01-31T09:26:41.448Z,84.87
2019-01-31T09:31:30.156Z,84.68
2019-01-31T09:36:07.712Z,84.13
2019-01-31T09:40:58.519Z,84.09
2019-01-31T09:46:30.965Z,83.63
2019-01-31T09:51:35.290Z,83.96
2019-01-31T09:56:47.099Z,82.82
2019-01-31T10:01:45.798Z,83.22
2019-01-31T10:06:16.185Z,82.59
2019-01-31T10:10:58.512Z,81.53
2019-01-31T10:16:05.753Z,82.13
2019-01-31T10:21:30.136Z,80.22
2019-01-31T10:26:33.529Z,81.15
2019-01-31T10:31:59.356Z,81.86
2019-01-31T10:37:11.929Z,81.10
2019-01-31T10:41:46.694Z,80.55
2019-01-31T10:46:26.978Z,80.98
2019-01-31T10:51:20.378Z,81.00
2019-01-31T10:55:54.296Z,81.20
2019-01-31T11:00:52.997Z,81.12
2019-01-31T11:06:12.575Z,81.11
2019-01-31T11:10:29.821Z,80.60
2019-01-31T11:15:23.003Z,80.75
2019-01-31T11:19:58.160Z,80.30
2019-01-31T11:25:27.164Z,79.19
2019-01-31T11:30:32.707Z,79.17
2019-01-31T11:34:58.067Z,78.35
2019-01-31T11:39:56.681Z,79.18
2019-01-31T11:44:40.816Z,79.24
2019-01-31T11:49:46.620Z,77.56
2019-01-31T11:54:25.414Z,77.13
2019-01-31T11:58:59.414Z,75.86
2019-01-31T12:03:04.400Z,75.00
2019-01-31T12:07:09.291Z,75.71
2019-01-31T12:11:14.175Z,75.16
2019-01-31T12:15:19.318Z,74.60
2019-01-31T12:19:24.305Z,75.64
2019-01-31T12:23:32.151Z,75.61
2019-01-31T12:27:35.809Z,75.91
2019-01-31T12:31:40.842Z,77.87
2019-01-31T12:35:45.727Z,76.36
2019-01-31T12:39:52.229Z,75.11
2019-01-31T12:43:57.193Z,76.82
2019-01-31T12:48:02.115Z,74.70
2019-01-31T12:52:07.023Z,75.12
2019-01-31T12:56:12.016Z,75.67
2019-01-31T13:00:21.657Z,77.54
2019-01-31T13:04:26.614Z,74.86
2019-01-31T13:08:31.564Z,76.08
2019-01-31T13:12:36.496Z,76.77
2019-01-31T13:16:41.799Z,76.45
2019-01-31T13:20:46.789Z,76.08
2019-01-31T13:24:51.682Z,75.89
2019-01-31T13:28:56.562Z,77.58
2019-01-31T13:33:01.550Z,76.90
2019-01-31T13:37:06.532Z,78.43
2019-01-31T13:41:11.413Z,77.39
2019-01-31T13:45:19.191Z,77.51
2019-01-31T13:49:24.101Z,75.30
2019-01-31T13:53:29.300Z,77.27
2019-01-31T13:57:34.243Z,76.67
2019-01-31T14:01:39.131Z,77.66
2019-01-31T14:05:44.026Z,78.57
2019-01-31T14:09:48.935Z,78.81
2019-01-31T14:13:53.839Z,78.16
2019-01-31T14:17:58.726Z,78.43
2019-01-31T14:22:03.944Z,77.69
2019-01-31T14:26:08.852Z,78.00
2019-01-31T14:30:29.949Z,76.58
2019-01-31T14:34:34.889Z,75.70
2019-01-31T14:38:39.770Z,76.85
2019-01-31T14:42:44.681Z,75.71
2019-01-31T14:46:49.595Z,76.63
2019-01-31T14:50:54.635Z,75.17
2019-01-31T14:54:59.934Z,77.81
2019-01-31T14:59:04.831Z,76.43
2019-01-31T15:03:09.775Z,75.57
2019-01-31T15:07:14.667Z,74.84
2019-01-31T15:11:19.574Z,78.02
2019-01-31T15:15:24.480Z,77.70
2019-01-31T15:19:29.370Z,78.77
2019-01-31T15:23:34.277Z,79.04
2019-01-31T15:27:39.177Z,80.42
2019-01-31T15:31:44.066Z,79.18
2019-01-31T15:35:48.971Z,81.11
2019-01-31T15:39:54.125Z,80.97
2019-01-31T15:43:59.133Z,81.73
2019-01-31T15:48:04.145Z,80.45
2019-01-31T15:52:09.041Z,81.15
2019-01-31T15:56:13.926Z,81.36
2019-01-31T16:00:28.670Z,81.09
2019-01-31T16:04:33.567Z,80.92
2019-01-31T16:08:38.579Z,81.33
2019-01-31T16:12:43.506Z,82.98
2019-01-31T16:16:48.649Z,82.05
2019-01-31T16:20:53.545Z,82.15
2019-01-31T16:24:58.448Z,82.68
2019-01-31T16:29:03.453Z,82.72
2019-01-31T16:33:09.632Z,82.47
2019-01-31T16:37:14.534Z,82.19
2019-01-31T16:41:19.862Z,82.81
2019-01-31T16:45:24.899Z,82.68
2019-01-31T16:49:29.832Z,82.93
2019-01-31T16:53:35.036Z,82.41
2019-01-31T16:57:40.026Z,82.44
2019-01-31T17:01:45.239Z,83.34
2019-01-31T17:05:50.221Z,83.71
2019-01-31T17:09:55.134Z,83.86
2019-01-31T17:14:00.118Z,83.29
2019-01-31T17:18:07.374Z,83.46
2019-01-31T17:22:12.334Z,83.45
2019-01-31T17:26:19.857Z,83.24
2019-01-31T17:30:25.295Z,83.27
2019-01-31T17:34:30.266Z,83.37
2019-01-31T17:38:35.147Z,83.03
2019-01-31T17:42:40.102Z,83.46
2019-01-31T17:46:45.053Z,83.48
2019-01-31T17:50:50.299Z,83.89
2019-01-31T17:54:56.107Z,83.98
2019-01-31T17:59:01.161Z,83.40
2019-01-31T18:03:06.646Z,83.05
2019-01-31T18:07:11.624Z,83.20
2019-01-31T18:11:16.564Z,83.54
2019-01-31T18:15:21.477Z,83.31
2019-01-31T18:19:26.371Z,83.29
2019-01-31T18:23:31.588Z,83.04
2019-01-31T18:27:36.548Z,83.16
2019-01-31T18:31:42.086Z,82.93
2019-01-31T18:35:46.969Z,83.10
2019-01-31T18:39:51.869Z,82.88
2019-01-31T18:43:56.773Z,82.96
2019-01-31T18:48:04.846Z,82.64
2019-01-31T18:52:08.977Z,82.81
2019-01-31T18:56:13.889Z,83.02
2019-01-31T19:00:24.077Z,83.20
2019-01-31T19:04:29.006Z,83.38
2019-01-31T19:08:34.093Z,83.42
2019-01-31T19:12:39.088Z,82.90
2019-01-31T19:16:44.069Z,83.28
2019-01-31T19:20:49.078Z,83.45
2019-01-31T19:24:53.978Z,83.43
2019-01-31T19:28:58.940Z,83.18
2019-01-31T19:33:03.881Z,83.58
2019-01-31T19:37:08.869Z,84.02
2019-01-31T19:41:13.842Z,83.83
2019-01-31T19:45:40.204Z,84.47
2019-01-31T19:49:45.435Z,84.18
2019-01-31T19:53:50.508Z,83.87
2019-01-31T19:57:55.820Z,84.01
2019-01-31T20:02:00.852Z,83.68
2019-01-31T20:06:05.818Z,84.51
2019-01-31T20:10:12.020Z,84.25
2019-01-31T20:14:17.178Z,84.67
2019-01-31T20:18:22.139Z,84.51
2019-01-31T20:22:29.835Z,84.08
2019-01-31T20:26:34.804Z,84.27
2019-01-31T20:30:39.735Z,83.90
2019-01-31T20:34:44.696Z,84.09
2019-01-31T20:38:49.715Z,83.77
2019-01-31T20:42:54.716Z,83.84
2019-01-31T20:46:59.714Z,83.93
2019-01-31T20:51:04.767Z,84.65
2019-01-31T20:55:12.202Z,84.44
2019-01-31T20:59:18.215Z,84.86
2019-01-31T21:03:24.838Z,84.36
2019-01-31T21:07:30.000Z,84.61
2019-01-31T21:11:35.160Z,84.59
2019-01-31T21:15:40.190Z,84.70
2019-01-31T21:19:45.155Z,84.55
2019-01-31T21:23:50.092Z,85.11
2019-01-31T21:27:55.046Z,84.89
2019-01-31T21:32:00.015Z,85.55
2019-01-31T21:36:04.920Z,85.60
2019-01-31T21:40:10.659Z,85.04
2019-01-31T21:44:15.642Z,85.01
2019-01-31T21:48:20.889Z,85.26
2019-01-31T21:52:28.382Z,85.19
2019-01-31T21:56:33.285Z,85.13
2019-01-31T22:00:38.265Z,85.10
2019-01-31T22:04:43.760Z,84.83
2019-01-31T22:08:48.635Z,84.64
2019-01-31T22:12:54.194Z,84.27
2019-01-31T22:16:59.143Z,84.86
2019-01-31T22:21:04.053Z,84.44
2019-01-31T22:25:11.106Z,84.20
2019-01-31T22:29:16.042Z,84.14
2019-01-31T22:33:20.937Z,84.25
2019-01-31T22:37:26.155Z,84.21
2019-01-31T22:41:31.047Z,84.00
2019-01-31T22:45:35.973Z,84.50
2019-01-31T22:49:40.857Z,84.52
2019-01-31T22:53:45.780Z,84.41
2019-01-31T22:57:50.980Z,84.28
2019-01-31T23:02:03.524Z,84.00
2019-01-31T23:06:12.539Z,84.44
2019-01-31T23:10:17.705Z,83.99
2019-01-31T23:14:22.606Z,83.96
2019-01-31T23:19:05.588Z,83.43
2019-01-31T23:23:10.505Z,83.42
2019-01-31T23:27:15.394Z,83.04
2019-01-31T23:31:20.594Z,83.03
2019-01-31T23:35:25.840Z,82.33
2019-01-31T23:39:30.765Z,82.62
2019-01-31T23:43:35.928Z,81.83
2019-01-31T23:47:48.421Z,81.77
2019-01-31T23:51:48.051Z,82.27
2019-01-31T23:55:52.962Z,82.34
2019-01-31T23:59:57.876Z,82.22
